WADDYBRM

Guest
Details From WADD - Denpasar Ngurah Rai Intl
To YBRM - Broome Intl
Flight Number -
Tags generated
Created
Modified
Stats Distance 694 nm / 1,284 km
Max Altitude 35,000 ft / 10,668 m
Waypoints 6
Social Downloads 1
Likes 0
Share VATSIM

Download

Looking for another format? Having issues loading an existing format? Contact us
Advertisement - Login to hide

Notes

Basic altitude profile: - Ascent Rate: 2500ft/min - Ascent Speed: 250kts - Cruise Altitude: 34000ft - Cruise Speed: 420kts - Descent Rate: 1500ft/min - Descent Speed: 250kts Options: - Use NATs: yes - Use PACOTS: yes - Use low airways: yes - Use high airways: yes

Route

WADD BLI B349 TARUN L511 BRM YBRM

ID Type Via Altitude Latitude Longitude Leg Dist Tot Dist Heading (true) Name
O WADD APT - 0 ft / 0 m -8.74817˚ 115.16717˚ - 0 nm - Denpasar Ngurah Rai Intl
BLI VOR - 0 ft / 0 m -8.75058˚ 115.16331˚ 0 nm 0 nm 238° / 238° BALI VOR-DME
KALIV FIX B349 (AWY-LO) 35,000 ft / 10,668 m -10.96970˚ 116.34942˚ 150 nm 150 nm 152° / 152° -
TARUN FIX B349 (AWY-HI) 35,000 ft / 10,668 m -12.00000˚ 116.91788˚ 70 nm 221 nm 152° / 152° -
BRM NDB L511 (AWY-LO) 23,500 ft / 7,163 m -17.94639˚ 122.23528˚ 471 nm 693 nm 140° / 138° BROOME NDB-DME
O YBRM APT - 0 ft / 0 m -17.94875˚ 122.22723˚ 0 nm 693 nm 253° / 253° Broome Intl

Altitude Profile

Advertisement - Login to hide

Weather


0- 5 10 15 20 25 30 35+ Temperature / ° C

Clouds and Precipitation
Forecast for 2017-12-16 06:00 UTC. Updated an hour ago

Ground ~20,000 ft ~40,000 ft Winds

WADD

Details ICAO WADD (DPS)
Name Denpasar Ngurah Rai Intl
Region Indonesia
Timezone Asia/Makassar (UTC+8.0)
Stats Elevation 14 ft / 4 m (AMSL)
Location -8.748169° 115.167174°
Runways 1
Magnetic Variation 1.055° E

METAR

WADD 160200Z 29011KT 9999 FEW017 29/25 Q1010 NOSIG

Decode

TAF

Not found

Departure Runways

ID Width Length Bearing (true) Bearing (mag) Surface Threshold Offset Overrun Length
09 148 ft / 45 m 9,779 ft / 2,981 m 87.71° 86.65° Asphalt 121 ft / 37 m 75 ft / 23 m
27 148 ft / 45 m 9,779 ft / 2,981 m 267.70° 266.64° Asphalt 0 ft / 0 m 197 ft / 60 m

YBRM

Details ICAO YBRM
Name Broome Intl
Region Australia
Timezone Australia/Perth (UTC+8.0)
Stats Elevation 56 ft / 17 m (AMSL)
Location -17.948745° 122.227225°
Runways 1
Magnetic Variation 1.801° E

METAR

YBRM 160200Z AUTO 28009KT 9999 // NCD 32/24 Q1009

Decode

TAF

TAF YBRM 152306Z 1600/1624 27012KT CAVOK FM161500 28007KT 9999 SCT018

Decode

Destination Runways

ID Width Length Bearing (true) Bearing (mag) Surface Threshold Offset Overrun Length
10 148 ft / 45 m 8,325 ft / 2,537 m 105.60° 103.80° Asphalt 292 ft / 89 m 52 ft / 16 m
28 148 ft / 45 m 8,325 ft / 2,537 m 285.60° 283.80° Asphalt 666 ft / 203 m 0 ft / 0 m

Popular Alternatives